createdAt,value
2023-07-18T00:00:26.774Z,-88
2023-07-18T00:03:07.390Z,-88
2023-07-18T00:05:47.840Z,-88
2023-07-18T00:08:27.677Z,-88
2023-07-18T00:11:10.400Z,-88
2023-07-18T00:13:53.758Z,-88
2023-07-18T00:16:34.124Z,-88
2023-07-18T00:19:14.203Z,-88
2023-07-18T00:21:53.822Z,-88
2023-07-18T00:24:33.367Z,-88
2023-07-18T00:27:17.932Z,-88
2023-07-18T00:30:11.206Z,-88
2023-07-18T00:32:52.889Z,-88
2023-07-18T00:35:33.014Z,-88
2023-07-18T00:38:15.805Z,-88
2023-07-18T00:40:55.348Z,-88
2023-07-18T00:43:36.059Z,-88
2023-07-18T00:46:19.993Z,-88
2023-07-18T00:48:59.996Z,-88
2023-07-18T00:51:39.619Z,-88
2023-07-18T00:54:28.713Z,-88
2023-07-18T00:57:13.849Z,-88
2023-07-18T00:59:54.205Z,-88
2023-07-18T01:02:45.036Z,-88
2023-07-18T01:05:27.758Z,-88
2023-07-18T01:08:07.798Z,-87
2023-07-18T01:10:47.777Z,-88
2023-07-18T01:13:27.410Z,-87
2023-07-18T01:16:07.186Z,-88
2023-07-18T01:18:46.677Z,-88
2023-07-18T01:21:26.469Z,-88
2023-07-18T01:24:07.053Z,-88
2023-07-18T01:26:46.694Z,-88
2023-07-18T01:29:36.254Z,-88
2023-07-18T01:32:15.982Z,-88
2023-07-18T01:34:55.563Z,-88
2023-07-18T01:40:21.829Z,-88
2023-07-18T01:43:02.554Z,-88
2023-07-18T01:45:42.315Z,-88
2023-07-18T01:48:22.909Z,-88
2023-07-18T01:51:02.565Z,-88
2023-07-18T01:53:42.164Z,-88
2023-07-18T01:56:31.318Z,-88
2023-07-18T01:59:11.031Z,-88
2023-07-18T02:01:52.766Z,-88
2023-07-18T02:04:32.457Z,-88
2023-07-18T02:07:12.090Z,-88
2023-07-18T02:09:52.168Z,-89
2023-07-18T02:12:31.824Z,-88
2023-07-18T02:15:14.594Z,-88
2023-07-18T02:17:54.352Z,-88
2023-07-18T02:20:34.012Z,-88
2023-07-18T02:23:13.683Z,-88
2023-07-18T02:25:53.308Z,-88
2023-07-18T02:28:32.969Z,-88
2023-07-18T02:31:12.597Z,-88
2023-07-18T02:33:52.215Z,-88
2023-07-18T02:36:34.656Z,-88
2023-07-18T02:39:14.177Z,-88
2023-07-18T02:41:53.844Z,-88
2023-07-18T02:44:33.333Z,-88
2023-07-18T02:47:12.923Z,-88
2023-07-18T02:49:52.603Z,-88
2023-07-18T02:52:32.178Z,-88
2023-07-18T02:55:12.003Z,-88
2023-07-18T02:57:51.676Z,-88
2023-07-18T03:00:35.130Z,-88
2023-07-18T03:03:14.851Z,-88
2023-07-18T03:05:55.958Z,-88
2023-07-18T03:08:37.821Z,-88
2023-07-18T03:11:17.842Z,-88
2023-07-18T03:13:57.625Z,-89
2023-07-18T03:16:37.363Z,-88
2023-07-18T03:19:17.033Z,-88
2023-07-18T03:21:56.273Z,-88
2023-07-18T03:24:36.905Z,-88
2023-07-18T03:27:16.063Z,-88
2023-07-18T03:29:55.715Z,-88
2023-07-18T03:32:35.973Z,-88
2023-07-18T03:35:15.787Z,-88
2023-07-18T03:37:56.589Z,-88
2023-07-18T03:40:36.250Z,-87
2023-07-18T03:43:16.403Z,-88
2023-07-18T03:46:06.679Z,-88
2023-07-18T03:48:46.356Z,-88
2023-07-18T03:51:27.414Z,-88
2023-07-18T03:54:06.104Z,-88
2023-07-18T03:56:45.702Z,-88
2023-07-18T03:59:25.416Z,-88
2023-07-18T04:02:05.108Z,-88
2023-07-18T04:04:44.665Z,-88
2023-07-18T04:07:24.269Z,-88
2023-07-18T04:10:05.241Z,-87
2023-07-18T04:12:45.854Z,-88
2023-07-18T04:15:25.577Z,-88
2023-07-18T04:18:05.675Z,-86
2023-07-18T04:20:45.240Z,-88
2023-07-18T04:23:24.910Z,-88
2023-07-18T04:26:06.412Z,-88
2023-07-18T04:28:46.124Z,-88
2023-07-18T04:31:25.936Z,-88
2023-07-18T04:34:05.388Z,-88
2023-07-18T04:36:45.621Z,-88
2023-07-18T04:39:25.537Z,-88
2023-07-18T04:42:08.029Z,-88
2023-07-18T04:44:47.759Z,-87
2023-07-18T04:50:11.994Z,-88
2023-07-18T04:52:53.160Z,-87
2023-07-18T04:55:32.690Z,-87
2023-07-18T04:58:12.458Z,-88
2023-07-18T05:00:52.588Z,-88
2023-07-18T05:03:41.232Z,-88
2023-07-18T05:06:20.398Z,-89
2023-07-18T05:09:00.032Z,-89
2023-07-18T05:11:39.495Z,-89
2023-07-18T05:14:19.101Z,-89
2023-07-18T05:16:58.739Z,-88
2023-07-18T05:19:38.383Z,-88
2023-07-18T05:22:29.654Z,-89
2023-07-18T05:25:11.377Z,-89
2023-07-18T05:27:51.168Z,-89
2023-07-18T05:30:30.858Z,-89
2023-07-18T05:33:21.681Z,-89
2023-07-18T05:36:01.370Z,-88
2023-07-18T05:38:41.524Z,-89
2023-07-18T05:41:26.181Z,-89
2023-07-18T05:44:06.182Z,-89
2023-07-18T05:46:45.876Z,-88
2023-07-18T05:49:25.556Z,-89
2023-07-18T05:52:05.745Z,-89
2023-07-18T05:54:46.472Z,-88
2023-07-18T05:57:28.961Z,-89
2023-07-18T06:00:11.645Z,-89
2023-07-18T06:02:55.565Z,-89
2023-07-18T06:05:33.802Z,-89
2023-07-18T06:08:14.246Z,-89
2023-07-18T06:11:02.464Z,-88
2023-07-18T06:13:45.076Z,-89
2023-07-18T06:16:25.882Z,-89
2023-07-18T06:19:17.117Z,-88
2023-07-18T06:21:56.723Z,-88
2023-07-18T06:24:39.352Z,-88
2023-07-18T06:27:26.295Z,-88
2023-07-18T06:30:06.953Z,-88
2023-07-18T06:32:46.596Z,-87
2023-07-18T06:35:26.990Z,-88
2023-07-18T06:38:06.741Z,-88
2023-07-18T06:40:51.923Z,-89
2023-07-18T06:43:31.714Z,-88
2023-07-18T06:46:11.423Z,-87
2023-07-18T06:48:51.121Z,-90
2023-07-18T06:51:30.866Z,-92
2023-07-18T06:54:16.040Z,-91
2023-07-18T06:56:56.371Z,-91
2023-07-18T06:59:36.522Z,-88
2023-07-18T07:02:24.913Z,-86
2023-07-18T07:05:13.222Z,-86
2023-07-18T07:08:02.213Z,-86
2023-07-18T07:10:50.716Z,-86
2023-07-18T07:13:40.439Z,-86
2023-07-18T07:16:28.644Z,-86
2023-07-18T07:19:18.457Z,-86
2023-07-18T07:22:07.103Z,-85
2023-07-18T07:24:58.467Z,-86
2023-07-18T07:27:50.295Z,-86
2023-07-18T07:30:38.695Z,-86
2023-07-18T07:33:27.206Z,-86
2023-07-18T07:36:16.478Z,-86
2023-07-18T07:39:05.074Z,-86
2023-07-18T07:41:53.438Z,-85
2023-07-18T07:44:41.579Z,-86
2023-07-18T07:47:29.788Z,-85
2023-07-18T07:50:20.469Z,-86
2023-07-18T07:53:08.732Z,-86
2023-07-18T07:55:57.246Z,-86
2023-07-18T07:58:57.393Z,-86
2023-07-18T08:01:34.761Z,-85
2023-07-18T08:04:24.434Z,-85
2023-07-18T08:07:12.429Z,-85
2023-07-18T08:10:02.203Z,-85
2023-07-18T08:12:47.358Z,-86
2023-07-18T08:15:35.636Z,-86
2023-07-18T08:18:24.030Z,-85
2023-07-18T08:21:12.777Z,-86
2023-07-18T08:24:00.896Z,-86
2023-07-18T08:26:49.061Z,-86
2023-07-18T08:29:37.275Z,-86
2023-07-18T08:32:28.157Z,-86
2023-07-18T08:35:14.617Z,-86
2023-07-18T08:38:03.256Z,-86
2023-07-18T08:40:51.798Z,-74
2023-07-18T08:43:21.798Z,-74
2023-07-18T08:45:51.511Z,-73
2023-07-18T08:48:27.429Z,-86
2023-07-18T08:51:16.324Z,-83
2023-07-18T08:54:04.604Z,-84
2023-07-18T08:56:53.352Z,-85
2023-07-18T08:59:42.395Z,-86
2023-07-18T09:02:31.204Z,-86
2023-07-18T09:05:40.253Z,-86
2023-07-18T09:08:28.376Z,-86
2023-07-18T09:11:22.236Z,-86
2023-07-18T09:14:09.596Z,-86
2023-07-18T09:17:00.826Z,-86
2023-07-18T09:19:50.144Z,-86
2023-07-18T09:22:41.585Z,-86
2023-07-18T09:25:29.973Z,-86
2023-07-18T09:28:18.175Z,-86
2023-07-18T09:31:24.937Z,-86
2023-07-18T09:34:14.134Z,-86
2023-07-18T09:37:05.277Z,-86
2023-07-18T09:39:55.716Z,-86
2023-07-18T09:42:47.981Z,-86
2023-07-18T09:45:36.945Z,-86
2023-07-18T09:48:25.608Z,-86
2023-07-18T09:51:22.881Z,-86
2023-07-18T09:54:13.000Z,-86
2023-07-18T09:57:06.648Z,-86
2023-07-18T09:59:59.459Z,-86
2023-07-18T10:02:48.044Z,-86
2023-07-18T10:05:36.551Z,-86
2023-07-18T10:08:24.945Z,-86
2023-07-18T10:11:13.376Z,-86
2023-07-18T10:14:03.845Z,-87
2023-07-18T10:17:06.339Z,-87
2023-07-18T10:19:54.613Z,-87
2023-07-18T10:22:54.809Z,-87
2023-07-18T10:25:57.286Z,-87
2023-07-18T10:28:49.937Z,-87
2023-07-18T10:31:39.416Z,-87
2023-07-18T10:34:28.187Z,-86
2023-07-18T10:37:41.499Z,-87
2023-07-18T10:40:40.545Z,-87
2023-07-18T10:43:28.543Z,-87
2023-07-18T10:46:17.702Z,-87
2023-07-18T10:49:05.996Z,-87
2023-07-18T10:51:58.235Z,-87
2023-07-18T10:55:14.112Z,-87
2023-07-18T10:58:02.315Z,-87
2023-07-18T11:00:52.518Z,-75
2023-07-18T11:03:24.163Z,-76
2023-07-18T11:05:54.985Z,-76
2023-07-18T11:08:32.111Z,-76
2023-07-18T11:11:06.336Z,-75
2023-07-18T11:13:39.710Z,-75
2023-07-18T11:16:10.686Z,-76
2023-07-18T11:18:48.052Z,-75
2023-07-18T11:21:20.661Z,-75
2023-07-18T11:23:50.892Z,-87
2023-07-18T11:26:39.016Z,-87
2023-07-18T11:29:30.602Z,-87
2023-07-18T11:32:35.187Z,-87
2023-07-18T11:35:25.404Z,-86
2023-07-18T11:38:13.580Z,-87
2023-07-18T11:41:02.184Z,-86
2023-07-18T11:43:55.953Z,-87
2023-07-18T11:46:48.672Z,-86
2023-07-18T11:49:38.349Z,-87
2023-07-18T11:52:26.507Z,-87
2023-07-18T11:55:16.707Z,-87
2023-07-18T11:57:58.883Z,-87
2023-07-18T12:00:48.014Z,-87
2023-07-18T12:03:37.777Z,-87
2023-07-18T12:06:27.097Z,-87
2023-07-18T12:09:16.542Z,-86
2023-07-18T12:12:05.405Z,-87
2023-07-18T12:14:54.443Z,-87
2023-07-18T12:17:44.172Z,-86
2023-07-18T12:20:32.426Z,-86
2023-07-18T12:23:20.580Z,-86
2023-07-18T12:26:08.673Z,-86
2023-07-18T12:28:56.871Z,-86
2023-07-18T12:31:53.741Z,-93
2023-07-18T12:34:43.543Z,-91
2023-07-18T12:37:58.956Z,-93
2023-07-18T12:41:19.104Z,-93
2023-07-18T12:52:10.525Z,-93
2023-07-18T12:55:04.336Z,-92
2023-07-18T12:58:18.815Z,-93
2023-07-18T13:01:00.654Z,-92
2023-07-18T13:03:44.871Z,-92
2023-07-18T13:06:24.633Z,-92
2023-07-18T13:09:05.320Z,-92
2023-07-18T13:11:45.880Z,-93
2023-07-18T13:14:26.030Z,-92
2023-07-18T13:17:06.224Z,-92
2023-07-18T13:19:46.100Z,-92
2023-07-18T13:22:26.716Z,-91
2023-07-18T13:25:13.566Z,-91
2023-07-18T13:27:54.845Z,-92
2023-07-18T13:30:35.658Z,-92
2023-07-18T13:33:15.243Z,-78
2023-07-18T13:35:43.560Z,-85
2023-07-18T13:38:12.386Z,-90
2023-07-18T13:40:52.050Z,-91
2023-07-18T13:43:34.054Z,-91
2023-07-18T13:46:17.146Z,-91
2023-07-18T13:48:58.066Z,-90
2023-07-18T13:51:36.774Z,-91
2023-07-18T13:54:16.631Z,-91
2023-07-18T13:56:56.315Z,-91
2023-07-18T13:59:37.729Z,-91
2023-07-18T14:02:18.034Z,-91
2023-07-18T14:05:00.885Z,-91
2023-07-18T14:07:40.808Z,-91
2023-07-18T14:10:20.432Z,-88
2023-07-18T14:13:00.231Z,-86
2023-07-18T14:15:49.726Z,-88
2023-07-18T14:18:37.870Z,-87
2023-07-18T14:21:27.390Z,-77
2023-07-18T14:23:56.024Z,-90
2023-07-18T14:26:40.060Z,-89
2023-07-18T14:29:28.493Z,-88
2023-07-18T14:32:18.938Z,-87
2023-07-18T14:34:58.706Z,-87
2023-07-18T14:37:46.985Z,-88
2023-07-18T14:40:35.332Z,-87
2023-07-18T14:43:35.449Z,-84
2023-07-18T14:46:24.323Z,-87
2023-07-18T14:49:12.482Z,-87
2023-07-18T14:52:00.900Z,-87
2023-07-18T14:54:49.122Z,-87
2023-07-18T14:57:37.347Z,-87
2023-07-18T15:00:20.574Z,-87
2023-07-18T15:03:00.344Z,-87
2023-07-18T15:05:48.551Z,-87
2023-07-18T15:08:31.194Z,-87
2023-07-18T15:11:22.492Z,-87
2023-07-18T15:14:10.720Z,-87
2023-07-18T15:17:01.470Z,-87
2023-07-18T15:19:44.013Z,-87
2023-07-18T15:22:33.406Z,-87
2023-07-18T15:25:17.198Z,-87
2023-07-18T15:28:06.179Z,-87
2023-07-18T15:30:45.801Z,-87
2023-07-18T15:33:35.712Z,-87
2023-07-18T15:36:17.754Z,-87
2023-07-18T15:39:05.845Z,-87
2023-07-18T15:41:53.980Z,-87
2023-07-18T15:44:42.251Z,-87
2023-07-18T15:47:27.258Z,-87
2023-07-18T15:50:07.883Z,-87
2023-07-18T15:52:56.281Z,-87
2023-07-18T15:55:44.689Z,-87
2023-07-18T15:58:32.903Z,-87
2023-07-18T16:01:12.532Z,-87
2023-07-18T16:04:03.387Z,-87
2023-07-18T16:06:44.584Z,-87
2023-07-18T16:09:31.425Z,-87
2023-07-18T16:12:20.762Z,-87
2023-07-18T16:15:07.319Z,-87
2023-07-18T16:17:57.437Z,-87
2023-07-18T16:20:39.915Z,-87
2023-07-18T16:23:19.681Z,-88
2023-07-18T16:26:01.525Z,-88
2023-07-18T16:28:41.242Z,-88
2023-07-18T16:31:24.438Z,-88
2023-07-18T16:34:04.064Z,-88
2023-07-18T16:36:46.760Z,-87
2023-07-18T16:39:26.678Z,-87
2023-07-18T16:42:23.516Z,-87
2023-07-18T16:44:49.881Z,-87
2023-07-18T16:47:30.200Z,-87
2023-07-18T16:50:17.619Z,-87
2023-07-18T16:52:57.493Z,-87
2023-07-18T16:55:37.449Z,-87
2023-07-18T16:58:17.413Z,-87
2023-07-18T17:00:59.124Z,-87
2023-07-18T17:03:38.801Z,-87
2023-07-18T17:06:27.066Z,-88
2023-07-18T17:09:09.769Z,-87
2023-07-18T17:11:58.070Z,-87
2023-07-18T17:14:46.290Z,-87
2023-07-18T17:17:34.795Z,-87
2023-07-18T17:20:19.461Z,-87
2023-07-18T17:23:05.813Z,-87
2023-07-18T17:25:47.392Z,-87
2023-07-18T17:28:27.401Z,-88
2023-07-18T17:31:15.059Z,-89
2023-07-18T17:33:54.704Z,-87
2023-07-18T17:36:45.255Z,-87
2023-07-18T17:39:27.867Z,-88
2023-07-18T17:42:08.691Z,-88
2023-07-18T17:44:57.724Z,-88
2023-07-18T17:47:38.717Z,-88
2023-07-18T17:50:18.442Z,-88
2023-07-18T17:52:58.069Z,-87
2023-07-18T17:55:37.614Z,-87
2023-07-18T17:58:17.305Z,-87
2023-07-18T18:00:57.779Z,-88
2023-07-18T18:03:39.624Z,-87
2023-07-18T18:06:22.616Z,-87
2023-07-18T18:09:07.838Z,-87
2023-07-18T18:11:47.783Z,-87
2023-07-18T18:14:27.497Z,-87
2023-07-18T18:17:07.684Z,-87
2023-07-18T18:19:47.858Z,-87
2023-07-18T18:22:27.029Z,-87
2023-07-18T18:25:07.077Z,-87
2023-07-18T18:27:57.068Z,-87
2023-07-18T18:30:45.772Z,-87
2023-07-18T18:33:28.609Z,-87
2023-07-18T18:36:16.930Z,-88
2023-07-18T18:38:56.608Z,-88
2023-07-18T18:41:37.278Z,-88
2023-07-18T18:44:17.180Z,-88
2023-07-18T18:46:57.529Z,-88
2023-07-18T18:49:47.848Z,-87
2023-07-18T18:52:32.160Z,-87
2023-07-18T18:55:20.264Z,-88
2023-07-18T18:57:56.793Z,-87
2023-07-18T19:00:36.764Z,-87
2023-07-18T19:03:16.776Z,-89
2023-07-18T19:05:57.246Z,-87
2023-07-18T19:08:47.796Z,-87
2023-07-18T19:11:27.734Z,-87
2023-07-18T19:14:16.445Z,-88
2023-07-18T19:16:56.164Z,-87
2023-07-18T19:19:41.069Z,-87
2023-07-18T19:22:20.892Z,-87
2023-07-18T19:25:02.052Z,-87
2023-07-18T19:27:44.729Z,-87
2023-07-18T19:30:26.201Z,-88
2023-07-18T19:33:14.445Z,-87
2023-07-18T19:36:02.801Z,-87
2023-07-18T19:38:50.704Z,-87
2023-07-18T19:41:40.297Z,-87
2023-07-18T19:44:21.876Z,-87
2023-07-18T19:47:03.381Z,-87
2023-07-18T19:49:43.269Z,-87
2023-07-18T19:52:23.313Z,-87
2023-07-18T19:55:12.494Z,-87
2023-07-18T19:57:52.142Z,-87
2023-07-18T20:00:31.976Z,-87
2023-07-18T20:03:11.927Z,-87
2023-07-18T20:05:51.573Z,-87
2023-07-18T20:08:31.539Z,-87
2023-07-18T20:11:11.212Z,-87
2023-07-18T20:13:54.216Z,-87
2023-07-18T20:16:35.637Z,-87
2023-07-18T20:19:15.322Z,-87
2023-07-18T20:22:03.549Z,-87
2023-07-18T20:24:46.064Z,-87
2023-07-18T20:27:38.899Z,-87
2023-07-18T20:30:27.100Z,-87
2023-07-18T20:33:11.613Z,-87
2023-07-18T20:35:54.618Z,-87
2023-07-18T20:38:34.279Z,-87
2023-07-18T20:41:19.629Z,-87
2023-07-18T20:43:59.149Z,-86
2023-07-18T20:46:45.068Z,-87
2023-07-18T20:49:32.402Z,-86
2023-07-18T20:52:17.033Z,-86
2023-07-18T20:54:56.845Z,-87
2023-07-18T20:57:36.601Z,-87
2023-07-18T21:00:17.762Z,-87
2023-07-18T21:03:03.219Z,-87
2023-07-18T21:05:51.666Z,-87
2023-07-18T21:08:34.192Z,-87
2023-07-18T21:11:14.021Z,-86
2023-07-18T21:14:03.241Z,-86
2023-07-18T21:16:48.389Z,-86
2023-07-18T21:19:34.300Z,-87
2023-07-18T21:22:22.470Z,-87
2023-07-18T21:25:06.171Z,-87
2023-07-18T21:27:45.947Z,-86
2023-07-18T21:30:25.958Z,-87
2023-07-18T21:33:10.330Z,-86
2023-07-18T21:35:56.000Z,-87
2023-07-18T21:38:36.658Z,-86
2023-07-18T21:41:24.168Z,-86
2023-07-18T21:44:03.946Z,-86
2023-07-18T21:46:52.516Z,-86
2023-07-18T21:49:42.941Z,-86
2023-07-18T21:52:31.310Z,-86
2023-07-18T21:55:20.643Z,-86
2023-07-18T21:58:00.153Z,-86
2023-07-18T22:00:48.503Z,-86
2023-07-18T22:03:31.681Z,-87
2023-07-18T22:06:20.307Z,-87
2023-07-18T22:09:09.512Z,-87
2023-07-18T22:11:56.172Z,-86
2023-07-18T22:14:44.331Z,-86
2023-07-18T22:17:31.846Z,-86
2023-07-18T22:20:20.092Z,-86
2023-07-18T22:23:02.813Z,-87
2023-07-18T22:28:39.365Z,-86
2023-07-18T22:31:19.339Z,-86
2023-07-18T22:33:58.934Z,-86
2023-07-18T22:36:39.934Z,-86
2023-07-18T22:39:33.476Z,-86
2023-07-18T22:42:17.812Z,-86
2023-07-18T22:44:57.351Z,-87
2023-07-18T22:47:37.206Z,-87
2023-07-18T22:50:25.449Z,-87
2023-07-18T22:53:14.000Z,-87
2023-07-18T22:55:56.577Z,-86
2023-07-18T22:58:36.109Z,-87
2023-07-18T23:01:15.934Z,-87
2023-07-18T23:03:55.642Z,-87
2023-07-18T23:06:46.418Z,-87
2023-07-18T23:09:26.961Z,-87
2023-07-18T23:12:08.136Z,-87
2023-07-18T23:14:53.616Z,-87
2023-07-18T23:17:33.498Z,-86
2023-07-18T23:20:21.581Z,-87
2023-07-18T23:23:09.793Z,-87
2023-07-18T23:25:49.497Z,-87
2023-07-18T23:28:29.077Z,-86
2023-07-18T23:31:09.060Z,-87
2023-07-18T23:33:48.746Z,-87
2023-07-18T23:36:37.241Z,-87
2023-07-18T23:39:19.863Z,-87
2023-07-18T23:41:59.864Z,-87
2023-07-18T23:44:39.616Z,-86
2023-07-18T23:47:19.302Z,-87
2023-07-18T23:50:07.670Z,-87
2023-07-18T23:52:47.450Z,-87
2023-07-18T23:55:27.098Z,-87
2023-07-18T23:58:06.670Z,-87
